Time;durP1;ratioP1;P1;durP2;ratioP2;P2;SDS_P1;SDS_P2;PMS_P1;PMS_P2;Temp;Humidity;BMP_temperature;BMP_pressure;BME280_temperature;BME280_humidity;BME280_pressure;Samples;Min_cycle;Max_cycle;Signal;HPM_P1;HPM_P2
2022/01/23 00:00:31;;;;;;;43.17;27.50;;;;;;;4.28;100.00;103403.13;5250664;28;20453;-68
2022/01/23 00:03:07;;;;;;;44.20;27.40;;;;;;;4.30;100.00;103397.81;5253494;28;20069;-68
2022/01/23 00:05:42;;;;;;;42.85;26.50;;;;;;;4.35;100.00;103398.63;5247436;28;20402;-68
2022/01/23 00:08:17;;;;;;;43.25;27.48;;;;;;;4.29;100.00;103394.28;5252770;28;20186;-68
2022/01/23 00:10:51;;;;;;;41.42;26.45;;;;;;;4.31;100.00;103386.34;5254990;28;20032;-68
2022/01/23 00:13:32;;;;;;;44.58;27.63;;;;;;;4.25;100.00;103384.63;5250021;28;20528;-68
2022/01/23 00:18:54;;;;;;;41.58;26.45;;;;;;;4.23;100.00;103382.91;5250971;28;20045;-68
2022/01/23 00:21:25;;;;;;;43.08;27.42;;;;;;;4.22;100.00;103381.13;5249632;28;20785;-68
2022/01/23 00:32:07;;;;;;;45.45;28.30;;;;;;;4.14;100.00;103381.22;5249980;28;20495;-68
2022/01/23 00:34:39;;;;;;;41.60;26.90;;;;;;;4.13;100.00;103376.84;5244436;28;20029;-68
2022/01/23 00:37:11;;;;;;;43.72;27.00;;;;;;;4.14;100.00;103368.00;5247928;28;20040;-68
2022/01/23 00:39:42;;;;;;;45.95;27.30;;;;;;;4.13;100.00;103359.19;5251431;28;20032;-68
2022/01/23 00:42:13;;;;;;;44.63;26.42;;;;;;;4.23;100.00;103373.22;5256966;28;20036;-68
2022/01/23 00:44:47;;;;;;;46.45;27.00;;;;;;;4.18;100.00;103374.13;5244680;28;20041;-68
2022/01/23 00:47:19;;;;;;;;;;;;;;;4.25;100.00;103371.41;5250666;28;20025;-68
2022/01/23 00:49:50;;;;;;;43.85;25.77;;;;;;;4.19;100.00;103360.03;5253543;28;19916;-68
2022/01/23 00:52:21;;;;;;;39.40;25.92;;;;;;;4.25;100.00;103362.63;5251620;28;20530;-68
2022/01/23 00:54:52;;;;;;;46.15;27.25;;;;;;;4.15;100.00;103353.03;5242958;28;20044;-68
2022/01/23 00:57:24;;;;;;;45.13;26.48;;;;;;;4.15;100.00;103371.53;5249469;28;20107;-68
2022/01/23 00:59:55;;;;;;;43.03;24.98;;;;;;;4.10;100.00;103359.25;5251485;28;20044;-68
2022/01/23 01:02:27;;;;;;;41.97;26.50;;;;;;;4.13;100.00;103366.25;5244731;28;20111;-68
2022/01/23 01:04:58;;;;;;;43.60;26.25;;;;;;;4.11;100.00;103362.75;5247268;28;20040;-68
2022/01/23 01:07:30;;;;;;;40.55;24.95;;;;;;;4.11;100.00;103357.47;5249331;28;20111;-68
2022/01/23 01:10:08;;;;;;;42.05;25.13;;;;;;;4.09;100.00;103361.91;5246707;28;20065;-68
2022/01/23 01:12:45;;;;;;;44.28;25.63;;;;;;;4.09;100.00;103359.25;5251420;28;20041;-68
2022/01/23 01:31:57;;;;;;;41.78;25.30;;;;;;;4.15;100.00;103364.47;5250100;28;20471;-68
2022/01/23 01:34:40;;;;;;;41.75;25.13;;;;;;;4.11;100.00;103368.03;5255057;28;20053;-68
2022/01/23 01:37:12;;;;;;;41.45;24.92;;;;;;;4.19;100.00;103366.19;5249814;28;20541;-68
2022/01/23 01:39:44;;;;;;;44.53;26.02;;;;;;;4.17;100.00;103367.13;5251822;28;20374;-68
2022/01/23 01:42:15;;;;;;;42.72;25.75;;;;;;;4.11;100.00;103368.03;5253628;28;20028;-68
2022/01/23 01:44:46;;;;;;;41.15;25.20;;;;;;;4.18;100.00;103377.69;5262341;28;20040;-68
2022/01/23 01:47:17;;;;;;;41.10;25.27;;;;;;;4.15;100.00;103379.47;5256002;28;20033;-68
2022/01/23 01:49:49;;;;;;;43.72;25.23;;;;;;;4.18;100.00;103377.69;5253094;28;20102;-68
2022/01/23 01:52:20;;;;;;;41.80;25.73;;;;;;;4.15;100.00;103374.19;5251900;28;20061;-68
2022/01/23 01:55:01;;;;;;;41.85;24.95;;;;;;;4.26;100.00;103382.91;5249045;28;20074;-68
2022/01/23 01:57:39;;;;;;;42.67;24.75;;;;;;;4.17;100.00;103383.84;5243830;28;20458;-68
2022/01/23 02:00:36;;;;;;;41.00;24.92;;;;;;;4.16;100.00;103379.47;5247912;28;20029;-68
2022/01/23 02:08:29;;;;;;;41.65;25.85;;;;;;;4.22;100.00;103386.44;5254647;28;20479;-68
2022/01/23 02:11:11;;;;;;;42.93;25.40;;;;;;;4.17;100.00;103386.47;5255198;28;20074;-68
2022/01/23 02:55:28;;;;;;;39.92;24.08;;;;;;;4.10;100.00;103346.03;5250596;28;20033;-68
2022/01/23 02:58:05;;;;;;;41.53;24.15;;;;;;;4.06;100.00;103340.78;5248122;28;20068;-68
2022/01/23 03:00:48;;;;;;;40.95;23.55;;;;;;;4.05;100.00;103337.28;5247542;28;20025;-68
2022/01/23 03:03:24;;;;;;;40.45;23.42;;;;;;;4.02;100.00;103332.00;5255064;28;20036;-68
2022/01/23 03:09:06;;;;;;;38.28;23.38;;;;;;;4.07;100.00;103342.53;5254021;28;20041;-68
2022/01/23 03:14:21;;;;;;;40.05;24.75;;;;;;;4.09;100.00;103340.75;5251608;28;20051;-68
2022/01/23 03:33:39;;;;;;;43.65;24.88;;;;;;;4.06;100.00;103359.28;5247479;28;20475;-68
2022/01/23 03:36:10;;;;;;;38.23;23.37;;;;;;;4.11;100.00;103357.47;5250299;28;20116;-68
2022/01/23 03:38:42;;;;;;;43.10;25.58;;;;;;;4.13;100.00;103356.56;5251846;28;20653;-68
2022/01/23 03:41:14;;;;;;;43.55;23.58;;;;;;;4.08;100.00;103347.78;5242125;28;20025;-68
2022/01/23 03:43:45;;;;;;;40.28;23.83;;;;;;;4.13;100.00;103356.56;5238805;28;20044;-68
2022/01/23 03:46:35;;;;;;;39.97;23.45;;;;;;;4.08;100.00;103357.50;5251424;28;20159;-68
2022/01/23 03:51:58;;;;;;;43.08;24.67;;;;;;;4.07;100.00;103350.47;5243587;28;20061;-68
2022/01/23 03:54:30;;;;;;;42.28;25.05;;;;;;;4.04;100.00;103361.91;5244624;28;20479;-68
2022/01/23 03:57:03;;;;;;;41.92;25.73;;;;;;;4.04;100.00;103355.78;5242443;28;20021;-68
2022/01/23 03:59:35;;;;;;;45.70;24.50;;;;;;;4.08;100.00;103361.00;5247789;28;20029;-68
2022/01/23 04:02:07;;;;;;;41.10;25.13;;;;;;;4.04;100.00;103361.91;5242717;28;20041;-68
2022/01/23 04:04:42;;;;;;;43.05;24.88;;;;;;;4.07;100.00;103359.25;5242736;28;20481;-68
2022/01/23 04:07:18;;;;;;;48.47;24.75;;;;;;;4.04;100.00;103361.06;5248096;28;20475;-68
2022/01/23 04:09:50;;;;;;;43.20;25.15;;;;;;;4.04;100.00;103372.47;5251199;28;20066;-68
2022/01/23 04:15:10;;;;;;;44.63;25.92;;;;;;;4.04;100.00;103375.13;5250427;28;20033;-68
2022/01/23 04:18:47;;;;;;;42.65;24.30;;;;;;;4.16;100.00;103371.53;5255454;28;20414;-68
2022/01/23 04:32:07;;;;;;;42.92;24.58;;;;;;;4.03;100.00;103376.03;5248686;28;20038;-68
2022/01/23 04:35:02;;;;;;;45.47;26.42;;;;;;;4.09;100.00;103372.47;5245934;28;20025;-68
2022/01/23 05:00:10;;;;;;;43.42;26.33;;;;;;;4.10;100.00;103375.09;5249013;28;20165;-68
2022/01/23 05:03:18;;;;;;;46.50;28.00;;;;;;;4.08;100.00;103382.13;5249031;28;20032;-68
2022/01/23 05:05:36;;;;;;;47.65;27.02;;;;;;;4.06;100.00;103380.41;5247246;28;20045;-68
2022/01/23 05:08:09;;;;;;;51.00;27.08;;;;;;;4.11;100.00;103370.69;5247895;28;20025;-68
2022/01/23 05:10:41;;;;;;;46.25;27.48;;;;;;;4.05;100.00;103374.25;5249769;28;20490;-68
2022/01/23 05:13:12;;;;;;;48.42;27.55;;;;;;;4.08;100.00;103368.94;5249082;28;20132;-68
2022/01/23 05:15:43;;;;;;;49.10;28.15;;;;;;;4.09;100.00;103377.75;5247497;28;20471;-68
2022/01/23 05:18:14;;;;;;;45.42;27.35;;;;;;;4.09;100.00;103375.09;5246669;28;20075;-68
2022/01/23 05:20:48;;;;;;;49.53;27.45;;;;;;;4.08;100.00;103373.34;5245379;28;20118;-68
2022/01/23 05:23:19;;;;;;;49.45;27.85;;;;;;;4.08;100.00;103373.34;5243382;28;20029;-68
2022/01/23 05:25:51;;;;;;;45.42;27.30;;;;;;;4.12;100.00;103373.31;5250075;28;20074;-68
2022/01/23 05:28:22;;;;;;;48.67;28.42;;;;;;;4.15;100.00;103380.34;5247415;28;20060;-68
2022/01/23 05:30:53;;;;;;;49.80;28.13;;;;;;;4.23;100.00;103382.91;5245441;28;20037;-68
2022/01/23 05:33:25;;;;;;;46.85;27.50;;;;;;;4.16;100.00;103381.19;5248638;28;20076;-68
2022/01/23 05:35:56;;;;;;;46.22;26.25;;;;;;;4.17;100.00;103382.97;5245718;28;20064;-68
2022/01/23 05:38:27;;;;;;;51.95;28.13;;;;;;;4.24;100.00;103379.38;5249661;28;20043;-68
2022/01/23 05:41:00;;;;;;;43.55;26.17;;;;;;;4.27;100.00;103385.50;5250339;28;20029;-68
2022/01/23 05:43:31;;;;;;;45.95;26.85;;;;;;;4.20;100.00;103391.75;5248303;28;20045;-68
2022/01/23 05:46:02;;;;;;;51.30;27.73;;;;;;;4.19;100.00;103386.47;5247925;28;20083;-68
2022/01/23 05:48:33;;;;;;;47.90;26.60;;;;;;;4.15;100.00;103382.09;5245880;28;20032;-68
2022/01/23 05:51:10;;;;;;;45.10;27.05;;;;;;;4.19;100.00;103379.41;5247782;28;20479;-68
2022/01/23 05:53:42;;;;;;;47.97;28.45;;;;;;;4.15;100.00;103380.34;5245726;28;20535;-68
2022/01/23 05:56:13;;;;;;;45.58;26.52;;;;;;;4.20;100.00;103369.72;5248135;28;20322;-68
2022/01/23 05:58:44;;;;;;;42.35;25.90;;;;;;;4.15;100.00;103372.41;5246537;28;20048;-68
2022/01/23 06:01:16;;;;;;;45.15;27.77;;;;;;;4.13;100.00;103369.78;5248329;28;20527;-68
2022/01/23 06:03:47;;;;;;;50.05;28.17;;;;;;;4.15;100.00;103371.53;5248548;28;20115;-68
2022/01/23 06:06:18;;;;;;;48.65;27.00;;;;;;;4.15;100.00;103374.19;5248524;28;20028;-68
2022/01/23 06:08:49;;;;;;;50.90;28.05;;;;;;;4.12;100.00;103361.84;5248249;28;20036;-68
2022/01/23 06:11:21;;;;;;;48.20;27.20;;;;;;;4.15;100.00;103374.19;5247033;28;20060;-68
2022/01/23 06:13:52;;;;;;;47.97;26.88;;;;;;;4.22;100.00;103367.94;5253469;28;20081;-68
2022/01/23 06:16:23;;;;;;;44.20;25.88;;;;;;;4.15;100.00;103374.19;5251969;28;20032;-68
2022/01/23 06:18:54;;;;;;;51.10;27.23;;;;;;;4.13;100.00;103369.78;5252711;28;20060;-68
2022/01/23 06:21:26;;;;;;;50.85;28.48;;;;;;;4.16;100.00;103376.81;5250313;28;20036;-68
2022/01/23 06:24:07;;;;;;;49.13;27.20;;;;;;;4.18;100.00;103379.41;5246303;28;20064;-68
2022/01/23 06:26:41;;;;;;;48.33;27.02;;;;;;;4.17;100.00;103372.41;5246121;28;20029;-68
2022/01/23 06:29:16;;;;;;;48.90;28.23;;;;;;;4.17;100.00;103378.56;5248466;28;20040;-68
2022/01/23 06:31:49;;;;;;;45.17;27.27;;;;;;;4.20;100.00;103377.63;5246664;28;20032;-68
2022/01/23 06:34:20;;;;;;;50.05;28.88;;;;;;;4.16;100.00;103381.19;5246371;28;20036;-68
2022/01/23 06:36:52;;;;;;;51.03;28.70;;;;;;;4.13;100.00;103380.34;5251012;28;20060;-68
2022/01/23 06:39:24;;;;;;;49.85;28.83;;;;;;;4.11;100.00;103375.97;5246724;28;20041;-68
2022/01/23 06:41:55;;;;;;;46.05;27.50;;;;;;;4.12;100.00;103375.06;5245122;28;20037;-68
2022/01/23 06:44:27;;;;;;;48.30;27.75;;;;;;;4.19;100.00;103386.47;5248087;28;20166;-68
2022/01/23 06:46:58;;;;;;;48.33;28.23;;;;;;;4.08;100.00;103390.06;5245546;28;20032;-68
2022/01/23 06:49:29;;;;;;;49.53;28.95;;;;;;;4.12;100.00;103388.28;5250838;28;20037;-68
2022/01/23 06:52:01;;;;;;;57.25;28.83;;;;;;;4.18;100.00;103392.63;5250535;28;20061;-68
2022/01/23 06:54:32;;;;;;;51.35;28.17;;;;;;;4.26;100.00;103401.38;5245402;28;20561;-68
2022/01/23 06:57:04;;;;;;;49.45;28.58;;;;;;;4.16;100.00;103397.06;5251624;28;20390;-68
2022/01/23 06:59:35;;;;;;;50.00;28.23;;;;;;;4.21;100.00;103393.47;5247709;28;20491;-68
2022/01/23 07:02:06;;;;;;;52.53;29.73;;;;;;;4.16;100.00;103391.78;5237659;28;20048;-68
2022/01/23 07:04:37;;;;;;;46.28;27.00;;;;;;;4.17;100.00;103399.69;5252586;28;20059;-68
2022/01/23 07:07:09;;;;;;;51.35;28.90;;;;;;;4.14;100.00;103410.28;5249734;28;20037;-68
2022/01/23 07:09:40;;;;;;;53.42;28.30;;;;;;;4.11;100.00;103402.38;5246313;28;20135;-68
2022/01/23 07:12:11;;;;;;;50.03;29.00;;;;;;;4.22;100.00;103405.81;5251767;28;20414;-68
2022/01/23 07:14:43;;;;;;;53.17;28.85;;;;;;;4.16;100.00;103412.91;5248903;28;20035;-68
2022/01/23 07:17:15;;;;;;;51.17;28.48;;;;;;;4.11;100.00;103412.97;5250757;28;20041;-68
2022/01/23 07:19:46;;;;;;;50.40;28.00;;;;;;;4.18;100.00;103416.41;5247424;28;20367;-68
2022/01/23 07:22:17;;;;;;;48.83;28.83;;;;;;;4.19;100.00;103419.06;5245713;28;20033;-68
2022/01/23 07:24:49;;;;;;;53.67;30.15;;;;;;;4.16;100.00;103426.13;5248448;28;20029;-68
2022/01/23 07:27:22;;;;;;;51.08;29.08;;;;;;;4.16;100.00;103428.75;5249599;28;20039;-68
2022/01/23 07:29:54;;;;;;;51.60;30.33;;;;;;;4.15;100.00;103432.31;5247921;28;20547;-68
2022/01/23 07:32:25;;;;;;;49.67;29.52;;;;;;;4.27;100.00;103435.72;5250894;28;20020;-68
2022/01/23 07:34:57;;;;;;;48.50;28.77;;;;;;;4.16;100.00;103436.69;5249332;28;20036;-68
2022/01/23 07:37:28;;;;;;;49.25;28.70;;;;;;;4.15;100.00;103445.53;5247765;28;20032;-68
2022/01/23 07:39:59;;;;;;;51.35;28.95;;;;;;;4.20;100.00;103443.69;5250159;28;20248;-68
2022/01/23 07:42:31;;;;;;;51.35;28.55;;;;;;;4.18;100.00;103445.47;5250709;28;20460;-68
2022/01/23 07:45:03;;;;;;;51.35;29.48;;;;;;;4.13;100.00;103443.75;5248569;28;20078;-68
2022/01/23 07:47:35;;;;;;;50.10;29.50;;;;;;;4.09;100.00;103449.94;5250429;28;20029;-68
2022/01/23 07:50:08;;;;;;;51.95;29.52;;;;;;;4.10;100.00;103448.19;5249084;28;20029;-68
2022/01/23 07:52:40;;;;;;;50.85;30.38;;;;;;;4.23;100.00;103451.63;5250342;28;20156;-68
2022/01/23 07:55:13;;;;;;;50.75;29.77;;;;;;;4.10;100.00;103456.09;5253268;28;20786;-68
2022/01/23 07:57:45;;;;;;;53.57;30.10;;;;;;;4.12;100.00;103454.31;5249618;28;20631;-68
2022/01/23 08:00:17;;;;;;;48.60;29.33;;;;;;;4.11;100.00;103452.59;5246731;28;20029;-68
2022/01/23 08:02:48;;;;;;;58.65;31.05;;;;;;;4.13;100.00;103461.38;5246796;28;20033;-68
2022/01/23 08:05:19;;;;;;;54.42;30.45;;;;;;;4.10;100.00;103454.38;5249173;28;20032;-68
2022/01/23 08:07:51;;;;;;;52.60;29.92;;;;;;;4.17;100.00;103452.53;5247437;28;20119;-68
2022/01/23 08:10:22;;;;;;;52.17;30.02;;;;;;;4.18;100.00;103454.31;5248180;28;20079;-68
2022/01/23 08:12:53;;;;;;;55.15;31.23;;;;;;;4.17;100.00;103457.81;5251077;28;20449;-68
2022/01/23 08:15:24;;;;;;;54.90;30.95;;;;;;;4.16;100.00;103455.19;5249307;28;20472;-68
2022/01/23 08:18:00;;;;;;;57.85;32.05;;;;;;;4.16;100.00;103453.44;5247345;28;20537;-68
2022/01/23 08:20:34;;;;;;;52.60;29.70;;;;;;;4.20;100.00;103456.91;5250169;28;20756;-68
2022/01/23 08:23:05;;;;;;;51.10;30.25;;;;;;;4.30;100.00;103456.84;5249616;28;20087;-68
2022/01/23 08:25:36;;;;;;;53.65;30.83;;;;;;;4.28;100.00;103460.41;5247970;28;20425;-68
2022/01/23 08:28:07;;;;;;;50.33;29.38;;;;;;;4.29;100.00;103456.84;5251229;28;20475;-68
2022/01/23 08:30:39;;;;;;;50.40;29.55;;;;;;;4.25;100.00;103461.28;5251708;28;20044;-68
2022/01/23 08:33:10;;;;;;;54.17;30.13;;;;;;;4.25;100.00;103461.28;5248779;28;20032;-68
2022/01/23 08:35:43;;;;;;;54.50;30.83;;;;;;;4.27;100.00;103466.56;5248361;28;20079;-68
2022/01/23 08:38:16;;;;;;;52.33;30.10;;;;;;;4.28;100.00;103466.53;5250342;28;20171;-68
2022/01/23 08:40:59;;;;;;;51.22;30.30;;;;;;;4.37;100.00;103465.56;5246078;28;20024;-68
2022/01/23 08:43:30;;;;;;;54.35;29.67;;;;;;;4.34;100.00;103478.84;5248894;28;20033;-68
2022/01/23 08:46:02;;;;;;;52.15;31.25;;;;;;;4.38;100.00;103484.97;5245982;28;20568;-68
2022/01/23 08:48:34;;;;;;;52.85;29.75;;;;;;;4.42;100.00;103481.41;5249886;28;20037;-68
2022/01/23 08:51:05;;;;;;;53.60;30.85;;;;;;;4.38;100.00;103491.13;5250482;28;20036;-68
2022/01/23 08:53:37;;;;;;;52.83;29.77;;;;;;;4.40;100.00;103486.72;5248571;28;20032;-68
2022/01/23 08:56:08;;;;;;;55.65;29.40;;;;;;;4.42;100.00;103484.06;5248707;28;20123;-68
2022/01/23 08:58:39;;;;;;;54.75;29.20;;;;;;;4.44;100.00;103491.06;5247050;28;20348;-68
2022/01/23 09:01:11;;;;;;;56.10;31.42;;;;;;;4.58;100.00;103487.44;5248153;28;20406;-68
2022/01/23 09:03:42;;;;;;;53.13;30.65;;;;;;;4.48;100.00;103484.88;5247893;28;20116;-68
2022/01/23 09:06:14;;;;;;;50.35;28.70;;;;;;;4.57;100.00;103493.66;5249362;28;20478;-68
2022/01/23 09:08:46;;;;;;;50.92;28.73;;;;;;;4.55;100.00;103487.50;5248898;28;20048;-68
2022/01/23 09:11:38;;;;;;;49.80;29.38;;;;;;;4.53;100.00;103476.94;5243299;28;20140;-68
2022/01/23 09:14:10;;;;;;;53.85;30.67;;;;;;;4.57;100.00;103476.00;5250131;28;20376;-68
2022/01/23 09:16:44;;;;;;;45.63;28.50;;;;;;;4.61;100.00;103483.00;5250853;28;20040;-68
2022/01/23 09:19:17;;;;;;;;;;;;;;;4.80;100.00;103485.50;5251376;28;20025;-68
2022/01/23 09:21:50;;;;;;;52.45;29.90;;;;;;;4.66;100.00;103482.97;5248750;28;20389;-68
2022/01/23 09:24:23;;;;;;;48.38;28.48;;;;;;;4.69;100.00;103483.81;5243255;28;20041;-68
2022/01/23 09:27:01;;;;;;;53.42;29.73;;;;;;;4.71;100.00;103482.03;5256253;28;20036;-68
2022/01/23 09:29:38;;;;;;;52.35;29.23;;;;;;;4.71;100.00;103484.66;5255068;28;20032;-68
2022/01/23 09:32:13;;;;;;;49.53;29.15;;;;;;;4.76;100.00;103486.41;5249593;28;20132;-68
2022/01/23 09:34:45;;;;;;;47.50;28.35;;;;;;;4.83;100.00;103490.72;5244729;28;20480;-68
2022/01/23 09:37:17;;;;;;;50.17;29.08;;;;;;;4.92;100.00;103488.00;5246661;28;20029;-68
2022/01/23 09:39:49;;;;;;;51.05;28.92;;;;;;;4.87;100.00;103495.09;5247898;28;20024;-68
2022/01/23 09:42:41;;;;;;;49.70;29.63;;;;;;;4.95;100.00;103487.09;5244447;28;20083;-68
2022/01/23 09:45:13;;;;;;;52.30;29.27;;;;;;;4.95;100.00;103489.72;5248127;28;20052;-68
2022/01/23 09:47:44;;;;;;;49.95;29.25;;;;;;;4.97;100.00;103493.28;5252005;28;20040;-68
2022/01/23 09:50:16;;;;;;;51.97;29.27;;;;;;;4.97;100.00;103491.50;5251016;28;20036;-68
2022/01/23 09:52:51;;;;;;;52.58;29.92;;;;;;;5.00;100.00;103494.09;5249420;28;20116;-68
2022/01/23 09:55:25;;;;;;;50.58;29.67;;;;;;;5.04;100.00;103500.22;5255321;28;20028;-68
2022/01/23 09:57:57;;;;;;;;;;;;;;;5.22;100.00;103501.81;5249992;28;20024;-68
2022/01/23 10:00:31;;;;;;;49.92;28.90;;;;;;;5.11;100.00;103510.72;5253952;28;20252;-68
2022/01/23 10:03:03;;;;;;;49.40;29.05;;;;;;;5.25;100.00;103507.97;5243750;28;20071;-68
2022/01/23 10:05:34;;;;;;;46.88;28.70;;;;;;;5.16;100.00;103510.69;5254042;28;20159;-68
2022/01/23 10:08:07;;;;;;;50.60;29.75;;;;;;;5.24;100.00;103507.97;5256104;28;20029;-68
2022/01/23 10:10:40;;;;;;;51.75;30.02;;;;;;;5.26;100.00;103506.19;5256893;28;20475;-68
2022/01/23 10:13:13;;;;;;;51.53;30.23;;;;;;;5.38;100.00;103508.66;5260661;28;20049;-68
2022/01/23 10:15:44;;;;;;;53.33;29.90;;;;;;;5.35;100.00;103499.88;5252891;28;20529;-68
2022/01/23 10:18:18;;;;;;;51.00;29.98;;;;;;;5.38;100.00;103505.16;5246596;28;20084;-68
2022/01/23 10:20:49;;;;;;;49.38;30.02;;;;;;;5.38;100.00;103510.44;5256882;28;20483;-68
2022/01/23 10:23:21;;;;;;;48.50;29.23;;;;;;;5.39;100.00;103506.88;5257834;28;20044;-68
2022/01/23 10:25:53;;;;;;;47.83;29.52;;;;;;;5.48;100.00;103498.84;5256743;28;20365;-68
2022/01/23 10:28:28;;;;;;;45.05;28.40;;;;;;;5.55;100.00;103505.81;5258055;28;20029;-68
2022/01/23 10:31:03;;;;;;;47.25;29.00;;;;;;;5.46;100.00;103492.69;5251634;28;20078;-68
2022/01/23 10:33:38;;;;;;;50.88;30.25;;;;;;;5.49;100.00;103501.47;5249555;28;20032;-68
2022/01/23 10:36:17;;;;;;;50.42;30.65;;;;;;;5.49;100.00;103495.31;5249792;28;20505;-68
2022/01/23 10:38:54;;;;;;;48.00;30.10;;;;;;;5.56;100.00;103496.09;5253387;28;20111;-68
2022/01/23 10:41:46;;;;;;;48.00;28.92;;;;;;;5.61;100.00;103503.09;5251807;28;20029;-68
2022/01/23 10:47:29;;;;;;;46.22;27.83;;;;;;;5.62;100.00;103504.84;5254569;28;20049;-68
2022/01/23 10:50:04;;;;;;;48.95;29.58;;;;;;;5.66;100.00;103498.63;5251865;28;20043;-68
2022/01/23 10:52:42;;;;;;;44.40;27.35;;;;;;;5.72;100.00;103494.16;5251252;28;20029;-68
2022/01/23 10:55:20;;;;;;;50.28;30.17;;;;;;;5.69;100.00;103501.25;5252118;28;20040;-68
2022/01/23 10:57:54;;;;;;;50.85;31.33;;;;;;;5.67;100.00;103492.41;5253979;28;20447;-68
2022/01/23 11:00:39;;;;;;;52.40;30.83;;;;;;;5.68;100.00;103488.00;5251372;28;20454;-68
2022/01/23 11:03:15;;;;;;;47.83;27.85;;;;;;;5.72;100.00;103489.72;5254170;28;20501;-68
2022/01/23 11:05:48;;;;;;;45.38;27.95;;;;;;;5.70;100.00;103495.03;5254935;28;20021;-68
2022/01/23 11:08:22;;;;;;;46.15;27.67;;;;;;;5.68;100.00;103496.81;5252248;28;21269;-68
2022/01/23 11:11:04;;;;;;;41.80;25.75;;;;;;;5.70;100.00;103500.34;5256530;28;20029;-68
2022/01/23 11:19:27;;;;;;;44.90;27.38;;;;;;;5.80;100.00;103482.53;5251738;28;20032;-68
2022/01/23 11:21:59;;;;;;;45.55;26.23;;;;;;;5.89;100.00;103490.34;5258054;28;20487;-68
2022/01/23 11:24:36;;;;;;;43.97;27.30;;;;;;;5.93;100.00;103477.94;5257191;28;20039;-68
2022/01/23 11:27:08;;;;;;;42.95;27.50;;;;;;;5.95;100.00;103475.28;5260844;28;20044;-68
2022/01/23 11:29:57;;;;;;;40.90;25.20;;;;;;;6.07;100.00;103475.13;5261985;28;20467;-68
2022/01/23 11:32:29;;;;;;;41.88;24.52;;;;;;;6.02;100.00;103467.25;5254334;28;20021;-68
2022/01/23 11:35:06;;;;;;;38.75;24.35;;;;;;;5.98;100.00;103468.16;5246896;28;20036;-68
2022/01/23 11:37:46;;;;;;;40.00;24.65;;;;;;;5.97;99.49;103465.56;5257117;28;20024;-68
2022/01/23 11:40:27;;;;;;;36.35;23.15;;;;;;;5.87;98.23;103472.75;5254707;28;20147;-68
2022/01/23 11:54:47;;;;;;;44.80;26.77;;;;;;;6.03;100.00;103461.03;5252390;28;20521;-68
2022/01/23 11:57:38;;;;;;;;;;;;;;;6.24;100.00;103458.94;5247401;28;20076;-68
2022/01/23 12:00:26;;;;;;;41.10;24.63;;;;;;;6.23;100.00;103459.84;5254942;28;19912;-68
2022/01/23 12:03:18;;;;;;;40.28;24.45;;;;;;;6.28;100.00;103455.34;5254336;28;20112;-68
2022/01/23 12:06:13;;;;;;;39.30;24.23;;;;;;;6.27;100.00;103451.81;5254010;28;20041;-68
2022/01/23 12:08:44;;;;;;;42.30;26.08;;;;;;;6.27;100.00;103450.94;5255527;28;20060;-67
2022/01/23 12:11:38;;;;;;;44.83;28.20;;;;;;;6.24;100.00;103457.16;5251873;28;20100;-68
2022/01/23 12:16:52;;;;;;;39.95;25.02;;;;;;;6.25;100.00;103450.97;5250364;28;20033;-68
2022/01/23 12:19:25;;;;;;;41.97;25.27;;;;;;;6.25;100.00;103436.81;5256408;28;20245;-68
2022/01/23 12:21:59;;;;;;;43.53;24.92;;;;;;;6.25;99.92;103429.78;5255707;28;20299;-68
2022/01/23 12:24:47;;;;;;;43.10;26.08;;;;;;;6.34;100.00;103434.03;5254081;28;20131;-68
2022/01/23 12:27:28;;;;;;;41.95;26.40;;;;;;;6.32;100.00;103438.47;5254664;28;20098;-68
2022/01/23 12:30:17;;;;;;;44.50;26.83;;;;;;;6.41;100.00;103429.50;5254567;28;20483;-68
2022/01/23 12:33:12;;;;;;;45.05;27.15;;;;;;;6.51;100.00;103430.22;5255513;28;20111;-67
2022/01/23 12:35:46;;;;;;;41.03;25.48;;;;;;;6.42;100.00;103429.50;5255194;28;20025;-68
2022/01/23 12:38:18;;;;;;;42.15;26.02;;;;;;;6.48;100.00;103433.78;5254681;28;20033;-68
2022/01/23 12:40:50;;;;;;;43.67;26.23;;;;;;;6.55;100.00;103424.81;5251688;28;20029;-68
2022/01/23 12:43:25;;;;;;;41.83;25.67;;;;;;;6.56;100.00;103425.69;5252178;28;20082;-68
2022/01/23 12:46:08;;;;;;;37.30;23.63;;;;;;;6.58;99.06;103429.22;5242553;28;20028;-68
2022/01/23 12:48:41;;;;;;;37.97;25.02;;;;;;;6.57;99.13;103417.72;5252017;28;20032;-68
2022/01/23 12:51:12;;;;;;;36.97;24.63;;;;;;;6.56;99.76;103420.38;5252364;28;20443;-68
2022/01/23 12:53:43;;;;;;;36.88;24.27;;;;;;;6.60;99.22;103416.81;5251992;28;20120;-68
2022/01/23 12:56:24;;;;;;;38.17;24.73;;;;;;;6.67;100.00;103419.31;5252009;28;20051;-68
2022/01/23 12:59:06;;;;;;;39.72;24.55;;;;;;;6.61;100.00;103422.03;5248279;28;20033;-68
2022/01/23 13:01:43;;;;;;;38.60;23.95;;;;;;;6.70;100.00;103417.50;5246142;28;20032;-68
2022/01/23 13:04:16;;;;;;;34.85;23.02;;;;;;;6.74;98.48;103408.56;5252681;28;20029;-68
2022/01/23 13:12:10;;;;;;;36.95;22.17;;;;;;;6.74;98.66;103403.28;5247599;28;20049;-68
2022/01/23 13:14:51;;;;;;;33.55;21.85;;;;;;;6.76;97.97;103401.47;5251839;28;20111;-68
2022/01/23 13:29:55;;;;;;;37.95;24.73;;;;;;;6.72;97.26;103391.81;5251832;28;20036;-68
2022/01/23 13:32:29;;;;;;;39.88;25.25;;;;;;;6.77;99.21;103389.91;5242552;28;20040;-68
2022/01/23 13:35:08;;;;;;;43.25;26.92;;;;;;;6.82;98.96;103396.03;5251470;28;20094;-68
2022/01/23 13:37:45;;;;;;;40.05;25.05;;;;;;;6.71;97.77;103393.56;5253611;28;20040;-68
2022/01/23 13:40:24;;;;;;;41.63;26.48;;;;;;;6.72;99.70;103390.03;5253169;28;20120;-68
2022/01/23 13:59:53;;;;;;;44.97;27.27;;;;;;;6.62;96.75;103388.47;5252759;28;20041;-68
2022/01/23 14:02:28;;;;;;;41.78;27.85;;;;;;;6.63;98.11;103382.25;5250720;28;20396;-68
2022/01/23 14:05:02;;;;;;;47.40;28.65;;;;;;;6.61;98.65;103386.69;5254487;28;20033;-68
2022/01/23 14:07:34;;;;;;;41.10;26.48;;;;;;;6.67;97.39;103376.88;5253041;28;20115;-68
2022/01/23 14:10:18;;;;;;;46.58;27.92;;;;;;;6.64;98.60;103363.66;5252241;28;20029;-68
2022/01/23 14:12:52;;;;;;;43.58;27.33;;;;;;;6.57;100.00;103364.66;5252725;28;20069;-68
2022/01/23 14:15:28;;;;;;;38.67;25.63;;;;;;;6.74;97.70;103367.00;5251908;28;20021;-68
2022/01/23 14:18:09;;;;;;;40.67;25.45;;;;;;;6.75;97.10;103367.84;5253199;28;20450;-67
2022/01/23 14:20:43;;;;;;;45.10;26.20;;;;;;;6.60;95.84;103374.34;5252968;28;20040;-68
2022/01/23 14:23:18;;;;;;;44.38;27.65;;;;;;;6.57;95.45;103364.66;5251679;28;20035;-67
2022/01/23 14:25:56;;;;;;;44.53;27.35;;;;;;;6.55;96.69;103376.22;5253619;28;20481;-68
2022/01/23 14:28:37;;;;;;;42.97;27.88;;;;;;;6.54;100.00;103380.66;5254351;28;20578;-67
2022/01/23 14:31:16;;;;;;;44.30;29.60;;;;;;;6.56;99.80;103378.84;5252859;28;20068;-68
2022/01/23 14:33:51;;;;;;;46.13;28.45;;;;;;;6.65;98.55;103376.03;5254916;28;20028;-68
2022/01/23 14:36:26;;;;;;;43.97;27.58;;;;;;;6.72;97.79;103384.72;5255714;28;20036;-68
2022/01/23 14:38:57;;;;;;;43.45;27.30;;;;;;;6.56;97.05;103384.16;5254981;28;20242;-68
2022/01/23 14:41:31;;;;;;;45.50;28.40;;;;;;;6.53;97.30;103393.94;5251479;28;20167;-68
2022/01/23 14:44:17;;;;;;;46.17;28.30;;;;;;;6.55;97.87;103389.47;5256934;28;20036;-67
2022/01/23 14:46:55;;;;;;;43.45;26.42;;;;;;;6.52;98.28;103389.50;5256689;28;20120;-68
2022/01/23 14:49:30;;;;;;;42.25;27.67;;;;;;;6.50;97.79;103391.31;5258682;28;20376;-68
2022/01/23 14:52:02;;;;;;;42.55;26.75;;;;;;;6.63;97.34;103392.84;5253219;28;20467;-68
2022/01/23 14:54:33;;;;;;;47.38;27.58;;;;;;;6.51;98.59;103387.78;5251988;28;20040;-68
2022/01/23 14:57:07;;;;;;;40.33;27.48;;;;;;;6.47;97.90;103390.47;5255596;28;20482;-68
2022/01/23 14:59:39;;;;;;;41.72;26.55;;;;;;;6.48;100.00;103386.03;5252991;28;20027;-67